Aktuell sind 251 Gäste und ein Mitglied online

[source: ADDS]
METAR
EDVE 122150Z 30005KT 9999 FEW007 BKN032 12/10 Q1018

TAF EDVE 121700Z 1218/1221 19008KT CAVOK BECMG 1219/1221 29007KT PROB30 TEMPO 1220/1221 RA EDDV 130120Z 26001KT 8000 SCT049 10/09 Q1018

TAF EDDV 122300Z 1300/1324 20004KT 9999 SCT025 BECMG 1308/1310 24009KT TEMPO 1312/1315 25015G25KT PROB30 TEMPO 1313/1315 4000 SHRA BKN012CB ETHS 130120Z 25002KT 4000 BR BKN100 09/09 Q1018 GRN

TAF AMD ETHS 121530Z 1215/1224 19008KT 9999 NSW BKN060 TEMPO 1219/1223 25005KT 4000 DZRA BKN005 BKN012 CANCEL 1600Z ETHC 130120Z 09001KT 3500 BR BKN090 10/09 Q1018 YLO

TAF AMD ETHC 121705Z 1215/1224 19010KT 9999 NSW FEW020 BKN040 BECMG 1216/1218 23008KT 6000 -RA SCT010 BKN020 TEMPO 1218/1221 22010KT 3000 DZRA BKN005 CANCEL 1720 TAF EDVK 122000Z 1221/1303 20010KT 9999 SCT045 TEMPO 1221/1224 4000 RA BKN012
TAF
TAF EDVE 121700Z 1218/1221 19008KT CAVOK BECMG 1219/1221 29007KT PROB30 TEMPO 1220/1221 RA

TAF EDDV 122300Z 1300/1324 20004KT 9999 SCT025 BECMG 1308/1310 24009KT TEMPO 1312/1315 25015G25KT PROB30 TEMPO 1313/1315 4000 SHRA BKN012CB

TAF AMD ETHS 121530Z 1215/1224 19008KT 9999 NSW BKN060 TEMPO 1219/1223 25005KT 4000 DZRA BKN005 BKN012 CANCEL 1600Z

TAF AMD ETHC 121705Z 1215/1224 19010KT 9999 NSW FEW020 BKN040 BECMG 1216/1218 23008KT 6000 -RA SCT010 BKN020 TEMPO 1218/1221 22010KT 3000 DZRA BKN005 CANCEL 1720

TAF EDVK 122000Z 1221/1303 20010KT 9999 SCT045 TEMPO 1221/1224 4000 RA BKN012

SR / SS: 06:34 / 15:29 UTC (EDVE 2018-11-13)
Herzlich Willkommen in der FFG Gero! +++ David hat die PPL Prüfung bestanden! Herzlichen Glückwunsch und always Happy Landings! +++ Willkommen im Verein Oliver! Viel Erfolg bei der Ausbildung! +++ Schon wieder ein neues Mitglied! Wilkommen Emmanuel und viel Spaß bei der Ausbildung! +++ Hallo Maximilian, herzlich willkommen in der FFG und viel Erfolg für deine Ausbildung! +++ Wir heißen unser neuestes Mitglied Jörg herzlich willkommen. Viel Spaß in der FFG! +++ Max hat sein erstes Solo absolviert! Herzlichen Glückwunsch! +++ Wir haben einen neuen Fluglehrer! Willkommen Ronald und viel Spaß mit deinen Schülern! +++ Unser Lehrer Thomas hat seine Fluglehrer-Anwärterschaft abgeschlossen und kann jetzt unbeschränkt ausbilden. Herzlichen Glückwunsch!

wenig -> mittel -> viel

Professionelle Piloten arbeiten mit Checkliste
Ausdrucken und abarbeiten! Vorbereitete Links helfen bei der Beschaffung der notwendigen Informationen.

Weiterlesen ...

 Zugang zur DFS. Auf dem FFG-Account sind alle erforderlichen Daten unserer Maschinen hinterlegt. Jedes Mitglied hat hier volle Rechte! Zugangsdaten gibt es im Internen Bereich.

Hier gibt es die AIP mit allen erforderlichen Karten die im Abo der FFG liegen zum Download für unsere Mitglieder.

Letztes NOTAM EDVE
von 12.11.2018 1305Z bis 09.02.2019 2359Z
DUE TO OUTAGE OF DLE DVOR/DME THE FLW CHANGES TO SID OCCUR: GPS/FMS RNAV OVERLAY REMAIN UNCHANGED. AMEND DLE DVOR/DME TO READ DLE INT. [more]

Letztes NOTAM EDBC
von 09.11.2018 1215Z bis 06.02.2019 2359Z
THE FOLLOWING CHANGES TO SID OCCUR: RWY 08: SID ABGUS 1L ADD: PDG 4.3 PER CENT (262FT/NM) OR MORE UNTIL PASSING 7000FT AMSL. CROSS AB [more]

Letztes NOTAM EDDV
von 12.11.2018 1309Z bis 09.02.2019 2359Z
DUE TO OUTAGE OF DLE DVOR/DME THE FLW CHANGES TO MISSED APCH PROC OCCUR: ILS/LOC RWY 27L MISSED APCH CHANGED TO READ: CLIMB STRAIGHT A [more]

Letztes NOTAM EDVK
von 19.11.2018 0900Z bis 19.11.2018 1400Z
WARBURG DVOR/DME WRB 113.7MHZ/CH84X OUT OF SERVICE.

          aerodata150     Radio38